sensor_id;sensor_type;location;lat;lon;timestamp;pressure;altitude;pressure_sealevel;temperature;humidity
83264;BME280;73156;50.988;11.034;2024-01-25T00:00:26;100019.16;;;20.02;44.48
83264;BME280;73156;50.988;11.034;2024-01-25T00:02:52;100031.91;;;20.09;44.68
83264;BME280;73156;50.988;11.034;2024-01-25T00:05:17;100031.72;;;20.11;44.47
83264;BME280;73156;50.988;11.034;2024-01-25T00:07:48;100036.81;;;20.14;44.33
83264;BME280;73156;50.988;11.034;2024-01-25T00:10:16;100030.13;;;20.15;44.36
83264;BME280;73156;50.988;11.034;2024-01-25T00:12:41;100037.41;;;20.16;44.33
83264;BME280;73156;50.988;11.034;2024-01-25T00:15:08;99996.13;;;19.83;44.31
83264;BME280;73156;50.988;11.034;2024-01-25T00:17:34;100040.44;;;20.14;44.06
83264;BME280;73156;50.988;11.034;2024-01-25T00:19:59;100045.19;;;20.14;44.23
83264;BME280;73156;50.988;11.034;2024-01-25T00:22:24;100042.88;;;20.11;44.28
83264;BME280;73156;50.988;11.034;2024-01-25T00:24:50;100039.44;;;20.09;44.29
83264;BME280;73156;50.988;11.034;2024-01-25T00:27:15;100034.22;;;20.01;44.45
83264;BME280;73156;50.988;11.034;2024-01-25T00:29:41;100046.13;;;20.08;44.24
83264;BME280;73156;50.988;11.034;2024-01-25T00:32:06;100025.75;;;19.96;44.03
83264;BME280;73156;50.988;11.034;2024-01-25T00:34:31;100047.47;;;20.05;44.29
83264;BME280;73156;50.988;11.034;2024-01-25T00:36:57;100024.06;;;19.95;43.99
83264;BME280;73156;50.988;11.034;2024-01-25T00:39:22;100047.59;;;20.10;44.13
83264;BME280;73156;50.988;11.034;2024-01-25T00:41:50;100024.88;;;19.95;44.04
83264;BME280;73156;50.988;11.034;2024-01-25T00:44:16;100035.91;;;20.02;44.09
83264;BME280;73156;50.988;11.034;2024-01-25T00:46:41;100049.78;;;20.08;43.92
83264;BME280;73156;50.988;11.034;2024-01-25T00:49:08;100046.84;;;20.03;43.79
83264;BME280;73156;50.988;11.034;2024-01-25T00:51:33;100048.34;;;20.06;43.91
83264;BME280;73156;50.988;11.034;2024-01-25T00:53:59;100048.56;;;20.04;44.07
83264;BME280;73156;50.988;11.034;2024-01-25T00:56:24;100055.47;;;20.02;43.81
83264;BME280;73156;50.988;11.034;2024-01-25T00:58:50;100071.88;;;20.10;43.88
83264;BME280;73156;50.988;11.034;2024-01-25T01:01:15;100061.91;;;20.02;44.07
83264;BME280;73156;50.988;11.034;2024-01-25T01:03:41;100065.19;;;19.99;43.81
83264;BME280;73156;50.988;11.034;2024-01-25T01:06:07;100079.41;;;20.09;43.57
83264;BME280;73156;50.988;11.034;2024-01-25T01:08:33;100059.75;;;19.93;43.66
83264;BME280;73156;50.988;11.034;2024-01-25T01:10:58;100091.69;;;20.08;43.63
83264;BME280;73156;50.988;11.034;2024-01-25T01:13:23;100034.97;;;19.73;43.60
83264;BME280;73156;50.988;11.034;2024-01-25T01:15:48;100099.91;;;20.03;43.76
83264;BME280;73156;50.988;11.034;2024-01-25T01:18:14;100096.28;;;20.03;43.44
83264;BME280;73156;50.988;11.034;2024-01-25T01:20:39;100088.75;;;20.03;43.47
83264;BME280;73156;50.988;11.034;2024-01-25T01:23:04;100087.06;;;20.02;43.49
83264;BME280;73156;50.988;11.034;2024-01-25T01:25:29;100084.88;;;19.93;43.58
83264;BME280;73156;50.988;11.034;2024-01-25T01:27:54;100101.66;;;20.04;43.45
83264;BME280;73156;50.988;11.034;2024-01-25T01:30:20;100086.94;;;19.97;43.78
83264;BME280;73156;50.988;11.034;2024-01-25T01:32:45;100091.78;;;20.02;43.60
83264;BME280;73156;50.988;11.034;2024-01-25T01:35:11;100075.78;;;19.97;43.48
83264;BME280;73156;50.988;11.034;2024-01-25T01:37:36;100078.09;;;20.00;43.56
83264;BME280;73156;50.988;11.034;2024-01-25T01:40:01;100062.19;;;19.89;43.37
83264;BME280;73156;50.988;11.034;2024-01-25T01:42:27;100081.47;;;20.02;43.45
83264;BME280;73156;50.988;11.034;2024-01-25T01:44:53;100060.72;;;19.98;43.46
83264;BME280;73156;50.988;11.034;2024-01-25T01:47:19;100074.44;;;20.00;43.37
83264;BME280;73156;50.988;11.034;2024-01-25T01:49:44;100056.84;;;19.88;43.78
83264;BME280;73156;50.988;11.034;2024-01-25T01:52:10;100063.59;;;20.03;43.39
83264;BME280;73156;50.988;11.034;2024-01-25T01:54:36;100073.34;;;20.01;43.45
83264;BME280;73156;50.988;11.034;2024-01-25T01:57:02;100076.25;;;19.94;43.29
83264;BME280;73156;50.988;11.034;2024-01-25T01:59:28;100068.47;;;19.96;43.27
83264;BME280;73156;50.988;11.034;2024-01-25T02:01:54;100084.50;;;20.01;43.38
83264;BME280;73156;50.988;11.034;2024-01-25T02:04:19;100086.19;;;20.02;43.12
83264;BME280;73156;50.988;11.034;2024-01-25T02:06:44;100097.75;;;20.05;43.25
83264;BME280;73156;50.988;11.034;2024-01-25T02:09:11;100078.56;;;19.86;43.19
83264;BME280;73156;50.988;11.034;2024-01-25T02:11:36;100093.00;;;19.94;43.04
83264;BME280;73156;50.988;11.034;2024-01-25T02:14:02;100107.72;;;20.01;43.20
83264;BME280;73156;50.988;11.034;2024-01-25T02:16:27;100105.16;;;20.00;42.93
83264;BME280;73156;50.988;11.034;2024-01-25T02:18:52;100116.09;;;20.01;43.07
83264;BME280;73156;50.988;11.034;2024-01-25T02:21:19;100111.34;;;20.02;43.02
83264;BME280;73156;50.988;11.034;2024-01-25T02:23:44;100091.81;;;19.90;43.06
83264;BME280;73156;50.988;11.034;2024-01-25T02:26:10;100108.06;;;20.05;43.15
83264;BME280;73156;50.988;11.034;2024-01-25T02:28:35;100077.84;;;19.90;43.15
83264;BME280;73156;50.988;11.034;2024-01-25T02:31:01;100075.28;;;19.89;43.06
83264;BME280;73156;50.988;11.034;2024-01-25T02:33:26;100059.63;;;19.88;43.17
83264;BME280;73156;50.988;11.034;2024-01-25T02:35:52;100074.69;;;19.98;42.80
83264;BME280;73156;50.988;11.034;2024-01-25T02:38:17;100069.47;;;19.90;42.99
83264;BME280;73156;50.988;11.034;2024-01-25T02:40:42;100088.16;;;20.01;42.82
83264;BME280;73156;50.988;11.034;2024-01-25T02:43:08;100086.19;;;20.02;42.93
83264;BME280;73156;50.988;11.034;2024-01-25T02:45:33;100092.66;;;20.02;42.88
83264;BME280;73156;50.988;11.034;2024-01-25T02:47:58;100078.56;;;19.97;42.82
83264;BME280;73156;50.988;11.034;2024-01-25T02:50:23;100087.28;;;20.01;42.76
83264;BME280;73156;50.988;11.034;2024-01-25T02:52:49;100085.59;;;20.00;42.75
83264;BME280;73156;50.988;11.034;2024-01-25T02:55:18;100083.53;;;19.95;42.62
83264;BME280;73156;50.988;11.034;2024-01-25T02:57:43;100099.56;;;20.00;42.69
83264;BME280;73156;50.988;11.034;2024-01-25T03:00:09;100077.84;;;19.90;42.87
83264;BME280;73156;50.988;11.034;2024-01-25T03:02:34;100092.28;;;19.99;42.64
83264;BME280;73156;50.988;11.034;2024-01-25T03:05:00;100080.16;;;19.93;42.80
83264;BME280;73156;50.988;11.034;2024-01-25T03:07:25;100094.13;;;19.93;42.36
83264;BME280;73156;50.988;11.034;2024-01-25T03:09:50;100108.19;;;19.98;42.83
83264;BME280;73156;50.988;11.034;2024-01-25T03:12:15;100116.56;;;19.98;42.69
83264;BME280;73156;50.988;11.034;2024-01-25T03:14:41;100079.16;;;19.76;42.80
83264;BME280;73156;50.988;11.034;2024-01-25T03:17:06;100117.03;;;19.95;42.54
83264;BME280;73156;50.988;11.034;2024-01-25T03:19:32;100058.16;;;19.62;42.61
83264;BME280;73156;50.988;11.034;2024-01-25T03:21:58;100090.81;;;19.73;42.78
83264;BME280;73156;50.988;11.034;2024-01-25T03:24:23;100119.13;;;20.00;42.72
83264;BME280;73156;50.988;11.034;2024-01-25T03:26:49;100120.69;;;19.96;42.46
83264;BME280;73156;50.988;11.034;2024-01-25T03:29:15;100107.72;;;19.78;42.60
83264;BME280;73156;50.988;11.034;2024-01-25T03:31:40;100132.00;;;19.89;42.58
83264;BME280;73156;50.988;11.034;2024-01-25T03:34:05;100138.28;;;19.96;42.40
83264;BME280;73156;50.988;11.034;2024-01-25T03:36:31;100138.06;;;19.98;42.49
83264;BME280;73156;50.988;11.034;2024-01-25T03:38:56;100133.47;;;19.92;42.81
83264;BME280;73156;50.988;11.034;2024-01-25T03:41:23;100150.31;;;19.97;42.52
83264;BME280;73156;50.988;11.034;2024-01-25T03:43:49;100147.06;;;20.00;42.69
83264;BME280;73156;50.988;11.034;2024-01-25T03:46:14;100155.44;;;20.00;42.35
83264;BME280;73156;50.988;11.034;2024-01-25T03:48:39;100134.41;;;19.86;42.36
83264;BME280;73156;50.988;11.034;2024-01-25T03:51:05;100143.66;;;19.86;42.43
83264;BME280;73156;50.988;11.034;2024-01-25T03:53:30;100169.63;;;19.98;42.32
83264;BME280;73156;50.988;11.034;2024-01-25T03:55:55;100149.81;;;19.88;42.16
83264;BME280;73156;50.988;11.034;2024-01-25T03:58:20;100156.38;;;19.94;42.01
83264;BME280;73156;50.988;11.034;2024-01-25T04:00:46;100169.41;;;20.00;42.22
83264;BME280;73156;50.988;11.034;2024-01-25T04:03:11;100175.56;;;20.02;42.30
83264;BME280;73156;50.988;11.034;2024-01-25T04:05:37;100157.84;;;19.85;42.18
83264;BME280;73156;50.988;11.034;2024-01-25T04:08:03;100181.44;;;20.00;42.14
83264;BME280;73156;50.988;11.034;2024-01-25T04:10:28;100196.69;;;19.98;42.35
83264;BME280;73156;50.988;11.034;2024-01-25T04:12:54;100203.16;;;19.98;42.18
83264;BME280;73156;50.988;11.034;2024-01-25T04:15:19;100201.47;;;19.97;42.38
83264;BME280;73156;50.988;11.034;2024-01-25T04:17:44;100216.88;;;20.00;42.21
83264;BME280;73156;50.988;11.034;2024-01-25T04:20:10;100222.22;;;20.01;42.12
83264;BME280;73156;50.988;11.034;2024-01-25T04:22:36;100209.09;;;20.02;41.81
83264;BME280;73156;50.988;11.034;2024-01-25T04:25:01;100205.47;;;20.01;42.06
83264;BME280;73156;50.988;11.034;2024-01-25T04:27:27;100199.88;;;20.01;41.93
83264;BME280;73156;50.988;11.034;2024-01-25T04:29:52;100179.00;;;20.04;42.03
83264;BME280;73156;50.988;11.034;2024-01-25T04:32:17;100168.19;;;19.96;42.09
83264;BME280;73156;50.988;11.034;2024-01-25T04:34:43;100126.00;;;19.74;42.25
83264;BME280;73156;50.988;11.034;2024-01-25T04:37:09;100164.41;;;20.02;41.94
83264;BME280;73156;50.988;11.034;2024-01-25T04:39:34;100150.81;;;19.94;41.89
83264;BME280;73156;50.988;11.034;2024-01-25T04:41:59;100146.19;;;19.99;41.88
83264;BME280;73156;50.988;11.034;2024-01-25T04:44:25;100162.22;;;20.04;41.69
83264;BME280;73156;50.988;11.034;2024-01-25T04:46:50;100154.34;;;20.01;41.70
83264;BME280;73156;50.988;11.034;2024-01-25T04:49:17;100176.81;;;20.06;41.70
83264;BME280;73156;50.988;11.034;2024-01-25T04:51:42;100164.91;;;19.99;41.86
83264;BME280;73156;50.988;11.034;2024-01-25T04:54:08;100177.31;;;20.03;41.74
83264;BME280;73156;50.988;11.034;2024-01-25T04:56:36;100170.81;;;19.91;41.75
83264;BME280;73156;50.988;11.034;2024-01-25T04:59:01;100214.94;;;20.00;41.74
83264;BME280;73156;50.988;11.034;2024-01-25T05:01:27;100207.88;;;19.98;41.85
83264;BME280;73156;50.988;11.034;2024-01-25T05:03:52;100226.72;;;20.02;41.99
83264;BME280;73156;50.988;11.034;2024-01-25T05:06:17;100223.91;;;20.02;41.74
83264;BME280;73156;50.988;11.034;2024-01-25T05:08:42;100214.94;;;20.00;41.61
83264;BME280;73156;50.988;11.034;2024-01-25T05:11:08;100184.31;;;19.82;41.58
83264;BME280;73156;50.988;11.034;2024-01-25T05:13:34;100214.56;;;19.97;41.53
83264;BME280;73156;50.988;11.034;2024-01-25T05:15:59;100224.28;;;19.94;41.46
83264;BME280;73156;50.988;11.034;2024-01-25T05:18:24;100251.00;;;20.02;41.29
83264;BME280;73156;50.988;11.034;2024-01-25T05:20:49;100248.69;;;19.99;41.46
83264;BME280;73156;50.988;11.034;2024-01-25T05:23:15;100246.00;;;19.92;41.00
83264;BME280;73156;50.988;11.034;2024-01-25T05:25:40;100255.69;;;19.90;41.16
83264;BME280;73156;50.988;11.034;2024-01-25T05:28:06;100260.34;;;19.96;41.10
83264;BME280;73156;50.988;11.034;2024-01-25T05:30:31;100268.00;;;20.00;41.16
83264;BME280;73156;50.988;11.034;2024-01-25T05:32:56;100262.16;;;19.90;41.23
83264;BME280;73156;50.988;11.034;2024-01-25T05:35:22;100275.06;;;20.03;41.46
83264;BME280;73156;50.988;11.034;2024-01-25T05:37:49;100287.31;;;20.02;41.22
83264;BME280;73156;50.988;11.034;2024-01-25T05:40:14;100279.19;;;20.00;41.46
83264;BME280;73156;50.988;11.034;2024-01-25T05:42:39;100286.06;;;19.98;41.25
83264;BME280;73156;50.988;11.034;2024-01-25T05:45:05;100273.56;;;19.89;41.25
83264;BME280;73156;50.988;11.034;2024-01-25T05:47:31;100289.72;;;19.98;41.25
83264;BME280;73156;50.988;11.034;2024-01-25T05:49:57;100271.72;;;19.83;41.24
83264;BME280;73156;50.988;11.034;2024-01-25T05:52:22;100306.50;;;19.98;41.24
83264;BME280;73156;50.988;11.034;2024-01-25T05:54:49;100294.34;;;19.93;41.28
83264;BME280;73156;50.988;11.034;2024-01-25T05:57:14;100300.03;;;19.98;41.30
83264;BME280;73156;50.988;11.034;2024-01-25T05:59:39;100298.97;;;19.99;41.01
83264;BME280;73156;50.988;11.034;2024-01-25T06:02:05;100298.59;;;19.95;41.29
83264;BME280;73156;50.988;11.034;2024-01-25T06:04:30;100283.28;;;19.86;41.09
83264;BME280;73156;50.988;11.034;2024-01-25T06:06:56;100299.44;;;19.96;41.24
83264;BME280;73156;50.988;11.034;2024-01-25T06:09:21;100304.16;;;19.95;40.88
83264;BME280;73156;50.988;11.034;2024-01-25T06:11:46;100288.28;;;19.96;41.01
83264;BME280;73156;50.988;11.034;2024-01-25T06:14:11;100294.34;;;19.93;41.03
83264;BME280;73156;50.988;11.034;2024-01-25T06:16:37;100293.63;;;19.97;40.79
83264;BME280;73156;50.988;11.034;2024-01-25T06:19:03;100293.00;;;19.95;41.00
83264;BME280;73156;50.988;11.034;2024-01-25T06:21:29;100303.94;;;19.97;40.74
83264;BME280;73156;50.988;11.034;2024-01-25T06:23:54;100289.91;;;19.85;40.89
83264;BME280;73156;50.988;11.034;2024-01-25T06:26:20;100297.34;;;19.91;40.78
83264;BME280;73156;50.988;11.034;2024-01-25T06:28:45;100292.13;;;19.83;41.09
83264;BME280;73156;50.988;11.034;2024-01-25T06:31:10;100279.56;;;19.74;40.88
83264;BME280;73156;50.988;11.034;2024-01-25T06:33:35;100347.75;;;19.96;40.75
83264;BME280;73156;50.988;11.034;2024-01-25T06:36:01;100330.41;;;19.94;40.68
83264;BME280;73156;50.988;11.034;2024-01-25T06:38:26;100341.34;;;19.96;40.81
83264;BME280;73156;50.988;11.034;2024-01-25T06:40:51;100341.34;;;19.96;41.00
83264;BME280;73156;50.988;11.034;2024-01-25T06:43:17;100338.16;;;19.92;40.57
83264;BME280;73156;50.988;11.034;2024-01-25T06:45:42;100354.84;;;19.99;40.59
83264;BME280;73156;50.988;11.034;2024-01-25T06:48:07;100346.69;;;19.97;40.50
83264;BME280;73156;50.988;11.034;2024-01-25T06:50:35;100351.06;;;19.93;40.64
83264;BME280;73156;50.988;11.034;2024-01-25T06:53:01;100333.88;;;19.78;40.80
83264;BME280;73156;50.988;11.034;2024-01-25T06:55:26;100339.34;;;19.85;40.55
83264;BME280;73156;50.988;11.034;2024-01-25T06:57:52;100365.84;;;19.94;40.52
83264;BME280;73156;50.988;11.034;2024-01-25T07:00:17;100372.53;;;19.93;40.66
83264;BME280;73156;50.988;11.034;2024-01-25T07:02:43;100362.00;;;19.95;40.65
83264;BME280;73156;50.988;11.034;2024-01-25T07:05:09;100355.16;;;19.91;40.50
83264;BME280;73156;50.988;11.034;2024-01-25T07:07:34;100360.25;;;19.94;40.53
83264;BME280;73156;50.988;11.034;2024-01-25T07:10:00;100356.47;;;19.88;40.45
83264;BME280;73156;50.988;11.034;2024-01-25T07:12:25;100357.22;;;19.95;40.29
83264;BME280;73156;50.988;11.034;2024-01-25T07:14:50;100356.25;;;19.90;40.16
83264;BME280;73156;50.988;11.034;2024-01-25T07:17:16;100379.34;;;19.97;40.58
83264;BME280;73156;50.988;11.034;2024-01-25T07:19:41;100383.84;;;19.98;40.34
83264;BME280;73156;50.988;11.034;2024-01-25T07:22:06;100392.44;;;19.96;40.29
83264;BME280;73156;50.988;11.034;2024-01-25T07:24:32;100396.34;;;19.95;40.40
83264;BME280;73156;50.988;11.034;2024-01-25T07:26:57;100385.88;;;19.91;40.22
83264;BME280;73156;50.988;11.034;2024-01-25T07:29:22;100377.59;;;19.84;40.29
83264;BME280;73156;50.988;11.034;2024-01-25T07:31:48;100403.38;;;19.98;40.23
83264;BME280;73156;50.988;11.034;2024-01-25T07:34:13;100408.97;;;19.98;40.07
83264;BME280;73156;50.988;11.034;2024-01-25T07:36:38;100410.06;;;19.97;40.11
83264;BME280;73156;50.988;11.034;2024-01-25T07:39:03;100404.59;;;19.90;39.97
83264;BME280;73156;50.988;11.034;2024-01-25T07:41:29;100412.25;;;19.95;39.84
83264;BME280;73156;50.988;11.034;2024-01-25T07:43:54;100405.81;;;19.94;39.73
83264;BME280;73156;50.988;11.034;2024-01-25T07:46:21;100411.97;;;19.85;39.83
83264;BME280;73156;50.988;11.034;2024-01-25T07:48:47;100433.28;;;19.97;40.02
83264;BME280;73156;50.988;11.034;2024-01-25T07:51:13;100439.47;;;19.99;39.90
83264;BME280;73156;50.988;11.034;2024-01-25T07:53:39;100423.25;;;19.90;39.56
83264;BME280;73156;50.988;11.034;2024-01-25T07:56:07;100447.84;;;19.99;39.74
83264;BME280;73156;50.988;11.034;2024-01-25T07:58:32;100415.84;;;19.84;39.70
83264;BME280;73156;50.988;11.034;2024-01-25T08:00:58;100435.44;;;19.95;39.66
83264;BME280;73156;50.988;11.034;2024-01-25T08:03:23;100443.25;;;20.05;39.62
83264;BME280;73156;50.988;11.034;2024-01-25T08:05:48;100439.00;;;20.02;39.84
83264;BME280;73156;50.988;11.034;2024-01-25T08:08:14;100427.28;;;19.94;39.54
83264;BME280;73156;50.988;11.034;2024-01-25T08:10:39;100426.97;;;20.02;39.54
83264;BME280;73156;50.988;11.034;2024-01-25T08:13:04;100442.13;;;20.12;39.32
83264;BME280;73156;50.988;11.034;2024-01-25T08:15:29;100445.75;;;20.13;39.57
83264;BME280;73156;50.988;11.034;2024-01-25T08:17:54;100419.69;;;20.01;39.36
83264;BME280;73156;50.988;11.034;2024-01-25T08:20:20;100414.97;;;20.01;39.24
83264;BME280;73156;50.988;11.034;2024-01-25T08:22:45;100436.91;;;20.16;39.13
83264;BME280;73156;50.988;11.034;2024-01-25T08:25:10;100423.25;;;20.08;39.22
83264;BME280;73156;50.988;11.034;2024-01-25T08:27:38;100445.69;;;20.19;38.99
83264;BME280;73156;50.988;11.034;2024-01-25T08:30:04;100414.50;;;20.04;39.13
83264;BME280;73156;50.988;11.034;2024-01-25T08:32:30;100447.38;;;20.20;39.22
83264;BME280;73156;50.988;11.034;2024-01-25T08:34:55;100439.38;;;20.24;39.13
83264;BME280;73156;50.988;11.034;2024-01-25T08:37:20;100440.47;;;20.23;39.01
83264;BME280;73156;50.988;11.034;2024-01-25T08:39:45;100451.88;;;20.21;39.16
83264;BME280;73156;50.988;11.034;2024-01-25T08:42:15;100412.69;;;20.10;39.05
83264;BME280;73156;50.988;11.034;2024-01-25T08:44:40;100433.41;;;20.20;38.92
83264;BME280;73156;50.988;11.034;2024-01-25T08:47:09;100445.13;;;20.29;38.88
83264;BME280;73156;50.988;11.034;2024-01-25T08:49:38;100427.59;;;20.22;38.95
83264;BME280;73156;50.988;11.034;2024-01-25T08:52:03;100437.44;;;20.24;38.89
83264;BME280;73156;50.988;11.034;2024-01-25T08:54:30;100456.28;;;20.29;38.70
83264;BME280;73156;50.988;11.034;2024-01-25T08:56:55;100462.72;;;20.29;38.90
83264;BME280;73156;50.988;11.034;2024-01-25T08:59:20;100460.78;;;20.30;38.90
83264;BME280;73156;50.988;11.034;2024-01-25T09:01:46;100466.16;;;20.31;38.87
83264;BME280;73156;50.988;11.034;2024-01-25T09:04:11;100463.59;;;20.30;38.67
83264;BME280;73156;50.988;11.034;2024-01-25T09:06:36;100454.84;;;20.26;38.59
83264;BME280;73156;50.988;11.034;2024-01-25T09:09:01;100463.72;;;20.35;38.59
83264;BME280;73156;50.988;11.034;2024-01-25T09:11:28;100468.25;;;20.36;39.12
83264;BME280;73156;50.988;11.034;2024-01-25T09:13:53;100480.97;;;20.32;39.06
83264;BME280;73156;50.988;11.034;2024-01-25T09:16:19;100469.16;;;20.30;39.25
83264;BME280;73156;50.988;11.034;2024-01-25T09:18:45;100470.41;;;20.34;39.37
83264;BME280;73156;50.988;11.034;2024-01-25T09:21:10;100472.50;;;20.38;39.04
83264;BME280;73156;50.988;11.034;2024-01-25T09:23:35;100479.31;;;20.42;39.07
83264;BME280;73156;50.988;11.034;2024-01-25T09:26:00;100479.94;;;20.44;39.23
83264;BME280;73156;50.988;11.034;2024-01-25T09:28:25;100473.72;;;20.42;39.08
83264;BME280;73156;50.988;11.034;2024-01-25T09:30:51;100485.03;;;20.47;39.11
83264;BME280;73156;50.988;11.034;2024-01-25T09:33:16;100476.81;;;20.52;39.03
83264;BME280;73156;50.988;11.034;2024-01-25T09:35:41;100477.66;;;20.53;38.78
83264;BME280;73156;50.988;11.034;2024-01-25T09:38:06;100484.34;;;20.52;39.00
83264;BME280;73156;50.988;11.034;2024-01-25T09:40:32;100486.56;;;20.61;39.08
83264;BME280;73156;50.988;11.034;2024-01-25T09:42:58;100484.84;;;20.60;38.87
83264;BME280;73156;50.988;11.034;2024-01-25T09:45:24;100468.25;;;20.47;38.70
83264;BME280;73156;50.988;11.034;2024-01-25T09:47:49;100474.63;;;20.54;38.93
83264;BME280;73156;50.988;11.034;2024-01-25T09:50:14;100499.13;;;20.70;38.55
83264;BME280;73156;50.988;11.034;2024-01-25T09:52:43;100485.84;;;20.66;38.72
83264;BME280;73156;50.988;11.034;2024-01-25T09:55:11;100485.97;;;20.71;38.63
83264;BME280;73156;50.988;11.034;2024-01-25T09:57:47;100471.59;;;20.56;38.97
83264;BME280;73156;50.988;11.034;2024-01-25T10:00:14;100498.72;;;20.67;39.05
83264;BME280;73156;50.988;11.034;2024-01-25T10:02:40;100493.13;;;20.67;38.81
83264;BME280;73156;50.988;11.034;2024-01-25T10:05:06;100494.94;;;20.61;38.79
83264;BME280;73156;50.988;11.034;2024-01-25T10:07:35;100505.28;;;20.61;39.17
83264;BME280;73156;50.988;11.034;2024-01-25T10:10:01;100512.72;;;20.67;38.99
83264;BME280;73156;50.988;11.034;2024-01-25T10:12:26;100512.59;;;20.62;39.06
83264;BME280;73156;50.988;11.034;2024-01-25T10:14:52;100509.56;;;20.63;39.32
83264;BME280;73156;50.988;11.034;2024-01-25T10:17:17;100453.75;;;20.27;39.14
83264;BME280;73156;50.988;11.034;2024-01-25T10:19:43;100502.09;;;20.57;39.38
83264;BME280;73156;50.988;11.034;2024-01-25T10:22:09;100513.81;;;20.66;39.04
83264;BME280;73156;50.988;11.034;2024-01-25T10:24:37;100500.78;;;20.60;39.03
83264;BME280;73156;50.988;11.034;2024-01-25T10:27:02;100491.78;;;20.58;38.92
83264;BME280;73156;50.988;11.034;2024-01-25T10:29:28;100504.72;;;20.70;38.96
83264;BME280;73156;50.988;11.034;2024-01-25T10:31:53;100508.88;;;20.79;39.05
83264;BME280;73156;50.988;11.034;2024-01-25T10:34:19;100501.94;;;20.82;38.82
83264;BME280;73156;50.988;11.034;2024-01-25T10:36:45;100509.38;;;20.88;38.53
83264;BME280;73156;50.988;11.034;2024-01-25T10:39:12;100503.31;;;20.91;38.49
83264;BME280;73156;50.988;11.034;2024-01-25T10:41:40;100504.56;;;20.95;38.52
83264;BME280;73156;50.988;11.034;2024-01-25T10:44:05;100503.94;;;20.93;38.81
83264;BME280;73156;50.988;11.034;2024-01-25T10:46:32;100478.97;;;20.80;38.20
83264;BME280;73156;50.988;11.034;2024-01-25T10:48:57;100493.47;;;20.88;38.54
83264;BME280;73156;50.988;11.034;2024-01-25T10:51:24;100503.13;;;20.92;38.48
83264;BME280;73156;50.988;11.034;2024-01-25T10:53:50;100513.28;;;20.87;38.37
83264;BME280;73156;50.988;11.034;2024-01-25T10:56:16;100507.44;;;20.88;38.37
83264;BME280;73156;50.988;11.034;2024-01-25T10:58:41;100512.53;;;20.91;38.50
83264;BME280;73156;50.988;11.034;2024-01-25T11:01:10;100510.47;;;20.87;38.54
83264;BME280;73156;50.988;11.034;2024-01-25T11:03:39;100498.53;;;20.80;38.54
83264;BME280;73156;50.988;11.034;2024-01-25T11:06:07;100511.72;;;20.91;38.60
83264;BME280;73156;50.988;11.034;2024-01-25T11:08:36;100488.06;;;20.75;38.36
83264;BME280;73156;50.988;11.034;2024-01-25T11:11:05;100513.63;;;20.90;38.47
83264;BME280;73156;50.988;11.034;2024-01-25T11:13:32;100506.94;;;20.91;38.52
83264;BME280;73156;50.988;11.034;2024-01-25T11:15:57;100511.03;;;20.95;38.33
83264;BME280;73156;50.988;11.034;2024-01-25T11:18:25;100482.50;;;20.87;38.34
83264;BME280;73156;50.988;11.034;2024-01-25T11:20:53;100504.44;;;21.01;38.37
83264;BME280;73156;50.988;11.034;2024-01-25T11:23:18;100461.72;;;20.83;38.16
83264;BME280;73156;50.988;11.034;2024-01-25T11:25:45;100503.88;;;21.11;38.02
83264;BME280;73156;50.988;11.034;2024-01-25T11:28:13;100481.56;;;20.93;38.10
83264;BME280;73156;50.988;11.034;2024-01-25T11:30:39;100507.88;;;21.03;38.26
83264;BME280;73156;50.988;11.034;2024-01-25T11:33:06;100505.09;;;21.03;38.31
83264;BME280;73156;50.988;11.034;2024-01-25T11:35:32;100523.09;;;21.07;38.22
83264;BME280;73156;50.988;11.034;2024-01-25T11:37:58;100518.84;;;21.05;38.47
83264;BME280;73156;50.988;11.034;2024-01-25T11:40:23;100504.22;;;21.03;38.29
83264;BME280;73156;50.988;11.034;2024-01-25T11:42:49;100510.69;;;21.03;38.58
83264;BME280;73156;50.988;11.034;2024-01-25T11:45:16;100513.72;;;21.02;38.35
83264;BME280;73156;50.988;11.034;2024-01-25T11:47:42;100510.91;;;21.02;38.35
83264;BME280;73156;50.988;11.034;2024-01-25T11:50:10;100521.88;;;21.03;38.35
83264;BME280;73156;50.988;11.034;2024-01-25T11:52:36;100513.41;;;20.92;38.37
83264;BME280;73156;50.988;11.034;2024-01-25T11:55:06;100520.66;;;20.99;38.73
83264;BME280;73156;50.988;11.034;2024-01-25T11:57:38;100513.41;;;20.92;38.49
83264;BME280;73156;50.988;11.034;2024-01-25T12:00:05;100511.06;;;20.89;38.63
83264;BME280;73156;50.988;11.034;2024-01-25T12:02:31;100497.56;;;20.86;38.65
83264;BME280;73156;50.988;11.034;2024-01-25T12:04:57;100507.16;;;20.78;38.79
83264;BME280;73156;50.988;11.034;2024-01-25T12:07:23;100520.44;;;20.83;39.19
83264;BME280;73156;50.988;11.034;2024-01-25T12:10:07;100532.34;;;20.78;39.16
83264;BME280;73156;50.988;11.034;2024-01-25T12:12:35;100533.91;;;20.74;39.27
83264;BME280;73156;50.988;11.034;2024-01-25T12:15:03;100529.66;;;20.72;39.08
83264;BME280;73156;50.988;11.034;2024-01-25T12:17:30;100516.84;;;20.64;39.21
83264;BME280;73156;50.988;11.034;2024-01-25T12:19:59;100525.00;;;20.66;39.52
83264;BME280;73156;50.988;11.034;2024-01-25T12:22:27;100495.38;;;20.47;39.46
83264;BME280;73156;50.988;11.034;2024-01-25T12:24:57;100502.81;;;20.53;39.34
83264;BME280;73156;50.988;11.034;2024-01-25T12:27:23;100489.41;;;20.43;39.31
83264;BME280;73156;50.988;11.034;2024-01-25T12:29:50;100489.16;;;20.45;39.51
83264;BME280;73156;50.988;11.034;2024-01-25T12:32:16;100520.28;;;20.66;39.46